sensor_id;sensor_type;location;lat;lon;timestamp;pressure;altitude;pressure_sealevel;temperature;humidity
3668;BME280;24099;47.102;15.440;2022-12-08T00:00:51;96936.75;;;2.65;100.00
3668;BME280;24099;47.102;15.440;2022-12-08T00:03:19;96932.53;;;2.64;100.00
3668;BME280;24099;47.102;15.440;2022-12-08T00:05:47;96925.97;;;2.60;100.00
3668;BME280;24099;47.102;15.440;2022-12-08T00:08:34;96923.50;;;2.68;100.00
3668;BME280;24099;47.102;15.440;2022-12-08T00:11:20;96922.94;;;2.64;100.00
3668;BME280;24099;47.102;15.440;2022-12-08T00:13:47;96922.81;;;2.66;100.00
3668;BME280;24099;47.102;15.440;2022-12-08T00:16:15;96923.91;;;2.63;100.00
3668;BME280;24099;47.102;15.440;2022-12-08T00:18:43;96920.34;;;2.64;100.00
3668;BME280;24099;47.102;15.440;2022-12-08T00:21:10;96922.00;;;2.65;100.00
3668;BME280;24099;47.102;15.440;2022-12-08T00:23:39;96921.75;;;2.59;100.00
3668;BME280;24099;47.102;15.440;2022-12-08T00:26:07;96926.50;;;2.63;100.00
3668;BME280;24099;47.102;15.440;2022-12-08T00:28:35;96925.00;;;2.61;100.00
3668;BME280;24099;47.102;15.440;2022-12-08T00:31:07;96922.16;;;2.54;100.00
3668;BME280;24099;47.102;15.440;2022-12-08T00:33:35;96920.50;;;2.53;100.00
3668;BME280;24099;47.102;15.440;2022-12-08T00:36:07;96917.78;;;2.55;100.00
3668;BME280;24099;47.102;15.440;2022-12-08T00:38:36;96921.88;;;2.57;100.00
3668;BME280;24099;47.102;15.440;2022-12-08T00:41:12;96923.53;;;2.58;100.00
3668;BME280;24099;47.102;15.440;2022-12-08T00:43:40;96913.78;;;2.60;100.00
3668;BME280;24099;47.102;15.440;2022-12-08T00:46:09;96917.91;;;2.53;100.00
3668;BME280;24099;47.102;15.440;2022-12-08T00:48:37;96913.53;;;2.44;100.00
3668;BME280;24099;47.102;15.440;2022-12-08T00:51:05;96912.72;;;2.53;100.00
3668;BME280;24099;47.102;15.440;2022-12-08T00:53:33;96910.41;;;2.50;100.00
3668;BME280;24099;47.102;15.440;2022-12-08T00:56:00;96913.41;;;2.55;100.00
3668;BME280;24099;47.102;15.440;2022-12-08T00:58:29;96917.78;;;2.55;100.00
3668;BME280;24099;47.102;15.440;2022-12-08T01:00:57;96918.03;;;2.61;100.00
3668;BME280;24099;47.102;15.440;2022-12-08T01:03:24;96916.13;;;2.54;100.00
3668;BME280;24099;47.102;15.440;2022-12-08T01:05:52;96918.03;;;2.61;100.00
3668;BME280;24099;47.102;15.440;2022-12-08T01:08:19;96920.09;;;2.58;100.00
3668;BME280;24099;47.102;15.440;2022-12-08T01:10:47;96916.13;;;2.54;100.00
3668;BME280;24099;47.102;15.440;2022-12-08T01:13:15;96917.06;;;2.62;100.00
3668;BME280;24099;47.102;15.440;2022-12-08T01:15:44;96923.63;;;2.66;100.00
3668;BME280;24099;47.102;15.440;2022-12-08T01:18:12;96926.25;;;2.57;100.00
3668;BME280;24099;47.102;15.440;2022-12-08T01:20:39;96915.59;;;2.60;100.00
3668;BME280;24099;47.102;15.440;2022-12-08T01:23:07;96928.97;;;2.65;100.00
3668;BME280;24099;47.102;15.440;2022-12-08T01:25:35;96922.13;;;2.64;100.00
3668;BME280;24099;47.102;15.440;2022-12-08T01:28:02;96925.69;;;2.63;100.00
3668;BME280;24099;47.102;15.440;2022-12-08T01:30:30;96932.38;;;2.65;100.00
3668;BME280;24099;47.102;15.440;2022-12-08T01:32:59;96918.19;;;2.60;100.00
3668;BME280;24099;47.102;15.440;2022-12-08T01:35:28;96916.38;;;2.60;100.00
3668;BME280;24099;47.102;15.440;2022-12-08T01:37:55;96920.63;;;2.61;100.00
3668;BME280;24099;47.102;15.440;2022-12-08T01:40:23;96916.56;;;2.59;100.00
3668;BME280;24099;47.102;15.440;2022-12-08T01:42:51;96918.72;;;2.54;100.00
3668;BME280;24099;47.102;15.440;2022-12-08T01:45:24;96913.69;;;2.52;100.00
3668;BME280;24099;47.102;15.440;2022-12-08T01:47:54;96907.94;;;2.49;100.00
3668;BME280;24099;47.102;15.440;2022-12-08T01:50:26;96904.78;;;2.55;100.00
3668;BME280;24099;47.102;15.440;2022-12-08T01:52:56;96897.41;;;2.50;100.00
3668;BME280;24099;47.102;15.440;2022-12-08T01:55:29;96890.16;;;2.54;100.00
3668;BME280;24099;47.102;15.440;2022-12-08T01:58:04;96886.59;;;2.55;100.00
3668;BME280;24099;47.102;15.440;2022-12-08T02:00:33;96878.94;;;2.53;100.00
3668;BME280;24099;47.102;15.440;2022-12-08T02:03:03;96878.94;;;2.53;100.00
3668;BME280;24099;47.102;15.440;2022-12-08T02:05:35;96880.47;;;2.56;100.00
3668;BME280;24099;47.102;15.440;2022-12-08T02:08:06;96873.47;;;2.56;100.00
3668;BME280;24099;47.102;15.440;2022-12-08T02:10:38;96867.47;;;2.56;100.00
3668;BME280;24099;47.102;15.440;2022-12-08T02:13:10;96863.22;;;2.55;100.00
3668;BME280;24099;47.102;15.440;2022-12-08T02:15:48;96856.13;;;2.57;100.00
3668;BME280;24099;47.102;15.440;2022-12-08T02:18:43;96857.22;;;2.54;100.00
3668;BME280;24099;47.102;15.440;2022-12-08T02:21:20;96863.09;;;2.47;100.00
3668;BME280;24099;47.102;15.440;2022-12-08T02:24:02;96856.41;;;2.54;100.00
3668;BME280;24099;47.102;15.440;2022-12-08T02:26:59;96864.88;;;2.56;100.00
3668;BME280;24099;47.102;15.440;2022-12-08T02:30:07;96855.16;;;2.58;100.00
3668;BME280;24099;47.102;15.440;2022-12-08T02:35:48;96856.50;;;2.62;100.00
3668;BME280;24099;47.102;15.440;2022-12-08T02:38:19;96853.25;;;2.60;100.00
3668;BME280;24099;47.102;15.440;2022-12-08T02:40:56;96855.03;;;2.59;100.00
3668;BME280;24099;47.102;15.440;2022-12-08T02:43:31;96851.44;;;2.60;100.00
3668;BME280;24099;47.102;15.440;2022-12-08T02:46:04;96851.59;;;2.59;100.00
3668;BME280;24099;47.102;15.440;2022-12-08T02:48:34;96850.78;;;2.58;100.00
3668;BME280;24099;47.102;15.440;2022-12-08T02:51:04;96852.44;;;2.59;100.00
3668;BME280;24099;47.102;15.440;2022-12-08T02:53:33;96859.28;;;2.51;100.00
3668;BME280;24099;47.102;15.440;2022-12-08T02:56:07;96851.06;;;2.55;100.00
3668;BME280;24099;47.102;15.440;2022-12-08T02:58:49;96848.59;;;2.54;100.00
3668;BME280;24099;47.102;15.440;2022-12-08T03:01:38;96850.78;;;2.58;100.00
3668;BME280;24099;47.102;15.440;2022-12-08T03:04:18;96844.63;;;2.59;100.00
3668;BME280;24099;47.102;15.440;2022-12-08T03:06:55;96842.84;;;2.60;100.00
3668;BME280;24099;47.102;15.440;2022-12-08T03:09:32;96849.00;;;2.59;100.00
3668;BME280;24099;47.102;15.440;2022-12-08T03:12:09;96842.69;;;2.61;100.00
3668;BME280;24099;47.102;15.440;2022-12-08T03:14:41;96839.69;;;2.66;100.00
3668;BME280;24099;47.102;15.440;2022-12-08T03:17:12;96832.19;;;2.53;100.00
3668;BME280;24099;47.102;15.440;2022-12-08T03:19:42;96837.13;;;2.56;100.00
3668;BME280;24099;47.102;15.440;2022-12-08T03:22:13;96828.06;;;2.60;100.00
3668;BME280;24099;47.102;15.440;2022-12-08T03:24:43;96829.69;;;2.61;100.00
3668;BME280;24099;47.102;15.440;2022-12-08T03:27:14;96826.81;;;2.64;100.00
3668;BME280;24099;47.102;15.440;2022-12-08T03:29:45;96829.41;;;2.64;100.00
3668;BME280;24099;47.102;15.440;2022-12-08T03:32:18;96822.09;;;2.50;100.00
3668;BME280;24099;47.102;15.440;2022-12-08T03:34:50;96815.50;;;2.56;100.00
3668;BME280;24099;47.102;15.440;2022-12-08T03:37:20;96815.25;;;2.49;100.00
3668;BME280;24099;47.102;15.440;2022-12-08T03:39:47;96808.84;;;2.43;100.00
3668;BME280;24099;47.102;15.440;2022-12-08T03:42:15;96806.22;;;2.53;100.00
3668;BME280;24099;47.102;15.440;2022-12-08T03:44:43;96808.69;;;2.55;100.00
3668;BME280;24099;47.102;15.440;2022-12-08T03:47:10;96809.50;;;2.55;100.00
3668;BME280;24099;47.102;15.440;2022-12-08T03:49:38;96804.69;;;2.60;100.00
3668;BME280;24099;47.102;15.440;2022-12-08T03:52:06;96801.28;;;2.60;100.00
3668;BME280;24099;47.102;15.440;2022-12-08T03:54:35;96795.41;;;2.58;100.00
3668;BME280;24099;47.102;15.440;2022-12-08T03:57:02;96797.13;;;2.39;100.00
3668;BME280;24099;47.102;15.440;2022-12-08T03:59:30;96802.53;;;2.46;100.00
3668;BME280;24099;47.102;15.440;2022-12-08T04:01:57;96797.88;;;2.50;100.00
3668;BME280;24099;47.102;15.440;2022-12-08T04:04:25;96793.25;;;2.53;100.00
3668;BME280;24099;47.102;15.440;2022-12-08T04:06:53;96792.41;;;2.53;100.00
3668;BME280;24099;47.102;15.440;2022-12-08T04:09:20;96789.69;;;2.54;100.00
3668;BME280;24099;47.102;15.440;2022-12-08T04:11:49;96781.88;;;2.54;100.00
3668;BME280;24099;47.102;15.440;2022-12-08T04:14:17;96791.31;;;2.55;100.00
3668;BME280;24099;47.102;15.440;2022-12-08T04:16:45;96788.72;;;2.55;100.00
3668;BME280;24099;47.102;15.440;2022-12-08T04:19:12;96789.41;;;2.57;100.00
3668;BME280;24099;47.102;15.440;2022-12-08T04:21:40;96795.28;;;2.59;100.00
3668;BME280;24099;47.102;15.440;2022-12-08T04:24:08;96786.50;;;2.60;100.00
3668;BME280;24099;47.102;15.440;2022-12-08T04:26:36;96786.53;;;2.51;100.00
3668;BME280;24099;47.102;15.440;2022-12-08T04:29:05;96789.81;;;2.53;100.00
3668;BME280;24099;47.102;15.440;2022-12-08T04:31:33;96786.00;;;2.47;100.00
3668;BME280;24099;47.102;15.440;2022-12-08T04:34:01;96776.28;;;2.49;100.00
3668;BME280;24099;47.102;15.440;2022-12-08T04:36:29;96776.97;;;2.51;100.00
3668;BME280;24099;47.102;15.440;2022-12-08T04:38:57;96779.28;;;2.54;100.00
3668;BME280;24099;47.102;15.440;2022-12-08T04:41:25;96770.41;;;2.57;100.00
3668;BME280;24099;47.102;15.440;2022-12-08T04:43:52;96771.50;;;2.54;100.00
3668;BME280;24099;47.102;15.440;2022-12-08T04:46:21;96774.38;;;2.51;100.00
3668;BME280;24099;47.102;15.440;2022-12-08T04:48:49;96760.44;;;2.52;100.00
3668;BME280;24099;47.102;15.440;2022-12-08T04:51:18;96765.47;;;2.54;100.00
3668;BME280;24099;47.102;15.440;2022-12-08T04:53:46;96755.25;;;2.42;100.00
3668;BME280;24099;47.102;15.440;2022-12-08T04:56:15;96759.34;;;2.45;100.00
3668;BME280;24099;47.102;15.440;2022-12-08T04:58:42;96758.94;;;2.40;100.00
3668;BME280;24099;47.102;15.440;2022-12-08T05:01:10;96753.59;;;2.51;100.00
3668;BME280;24099;47.102;15.440;2022-12-08T05:03:39;96761.00;;;2.46;100.00
3668;BME280;24099;47.102;15.440;2022-12-08T05:06:08;96752.78;;;2.51;100.00
3668;BME280;24099;47.102;15.440;2022-12-08T05:08:36;96746.34;;;2.55;100.00
3668;BME280;24099;47.102;15.440;2022-12-08T05:11:05;96746.06;;;2.58;100.00
3668;BME280;24099;47.102;15.440;2022-12-08T05:13:33;96747.16;;;2.55;100.00
3668;BME280;24099;47.102;15.440;2022-12-08T05:16:06;96740.88;;;2.58;100.00
3668;BME280;24099;47.102;15.440;2022-12-08T05:18:35;96741.56;;;2.50;100.00
3668;BME280;24099;47.102;15.440;2022-12-08T05:21:05;96734.75;;;2.49;100.00
3668;BME280;24099;47.102;15.440;2022-12-08T05:23:33;96736.38;;;2.50;100.00
3668;BME280;24099;47.102;15.440;2022-12-08T05:26:00;96735.97;;;2.55;100.00
3668;BME280;24099;47.102;15.440;2022-12-08T05:28:28;96738.13;;;2.59;100.00
3668;BME280;24099;47.102;15.440;2022-12-08T05:30:56;96741.53;;;2.60;100.00
3668;BME280;24099;47.102;15.440;2022-12-08T05:33:24;96736.50;;;2.58;100.00
3668;BME280;24099;47.102;15.440;2022-12-08T05:35:52;96738.84;;;2.52;100.00
3668;BME280;24099;47.102;15.440;2022-12-08T05:38:23;96742.53;;;2.49;100.00
3668;BME280;24099;47.102;15.440;2022-12-08T05:40:51;96736.09;;;2.53;100.00
3668;BME280;24099;47.102;15.440;2022-12-08T05:43:19;96741.16;;;2.55;100.00
3668;BME280;24099;47.102;15.440;2022-12-08T05:45:47;96739.22;;;2.57;100.00
3668;BME280;24099;47.102;15.440;2022-12-08T05:48:14;96743.31;;;2.59;100.00
3668;BME280;24099;47.102;15.440;2022-12-08T05:50:45;96744.44;;;2.57;100.00
3668;BME280;24099;47.102;15.440;2022-12-08T05:53:14;96746.88;;;2.58;100.00
3668;BME280;24099;47.102;15.440;2022-12-08T05:55:43;96753.72;;;2.59;100.00
3668;BME280;24099;47.102;15.440;2022-12-08T05:58:13;96751.13;;;2.59;100.00
3668;BME280;24099;47.102;15.440;2022-12-08T06:00:41;96746.88;;;2.58;100.00
3668;BME280;24099;47.102;15.440;2022-12-08T06:03:10;96740.06;;;2.57;100.00
3668;BME280;24099;47.102;15.440;2022-12-08T06:05:40;96732.13;;;2.49;100.00
3668;BME280;24099;47.102;15.440;2022-12-08T06:08:08;96733.25;;;2.47;100.00
3668;BME280;24099;47.102;15.440;2022-12-08T06:10:37;96731.31;;;2.49;100.00
3668;BME280;24099;47.102;15.440;2022-12-08T06:13:06;96729.53;;;2.49;100.00
3668;BME280;24099;47.102;15.440;2022-12-08T06:15:34;96729.25;;;2.52;100.00
3668;BME280;24099;47.102;15.440;2022-12-08T06:18:02;96729.81;;;2.56;100.00
3668;BME280;24099;47.102;15.440;2022-12-08T06:20:30;96729.53;;;2.59;100.00
3668;BME280;24099;47.102;15.440;2022-12-08T06:22:58;96728.03;;;2.56;100.00
3668;BME280;24099;47.102;15.440;2022-12-08T06:25:26;96721.88;;;2.48;100.00
3668;BME280;24099;47.102;15.440;2022-12-08T06:27:53;96716.28;;;2.52;100.00
3668;BME280;24099;47.102;15.440;2022-12-08T06:30:22;96715.06;;;2.47;100.00
3668;BME280;24099;47.102;15.440;2022-12-08T06:32:50;96716.13;;;2.54;100.00
3668;BME280;24099;47.102;15.440;2022-12-08T06:35:18;96716.00;;;2.55;100.00
3668;BME280;24099;47.102;15.440;2022-12-08T06:37:45;96722.53;;;2.59;100.00
3668;BME280;24099;47.102;15.440;2022-12-08T06:40:14;96724.97;;;2.61;100.00
3668;BME280;24099;47.102;15.440;2022-12-08T06:42:43;96722.88;;;2.74;100.00
3668;BME280;24099;47.102;15.440;2022-12-08T06:45:13;96716.34;;;2.60;100.00
3668;BME280;24099;47.102;15.440;2022-12-08T06:47:42;96716.06;;;2.63;100.00
3668;BME280;24099;47.102;15.440;2022-12-08T06:50:11;96723.50;;;2.58;100.00
3668;BME280;24099;47.102;15.440;2022-12-08T06:52:40;96724.34;;;2.49;100.00
3668;BME280;24099;47.102;15.440;2022-12-08T06:55:09;96727.47;;;2.53;100.00
3668;BME280;24099;47.102;15.440;2022-12-08T06:57:36;96730.16;;;2.61;100.00
3668;BME280;24099;47.102;15.440;2022-12-08T07:00:06;96737.00;;;2.62;100.00
3668;BME280;24099;47.102;15.440;2022-12-08T07:02:34;96732.63;;;2.62;100.00
3668;BME280;24099;47.102;15.440;2022-12-08T07:05:03;96735.34;;;2.61;100.00
3668;BME280;24099;47.102;15.440;2022-12-08T07:07:31;96728.38;;;2.61;100.00
3668;BME280;24099;47.102;15.440;2022-12-08T07:09:59;96725.78;;;2.61;100.00
3668;BME280;24099;47.102;15.440;2022-12-08T07:12:27;96731.38;;;2.66;100.00
3668;BME280;24099;47.102;15.440;2022-12-08T07:14:56;96725.66;;;2.63;100.00
3668;BME280;24099;47.102;15.440;2022-12-08T07:17:24;96716.41;;;2.51;100.00
3668;BME280;24099;47.102;15.440;2022-12-08T07:19:52;96699.44;;;2.56;100.00
3668;BME280;24099;47.102;15.440;2022-12-08T07:22:21;96689.19;;;2.55;100.00
3668;BME280;24099;47.102;15.440;2022-12-08T07:24:49;96709.31;;;2.53;100.00
3668;BME280;24099;47.102;15.440;2022-12-08T07:27:17;96720.22;;;2.56;100.00
3668;BME280;24099;47.102;15.440;2022-12-08T07:29:44;96714.97;;;2.66;100.00
3668;BME280;24099;47.102;15.440;2022-12-08T07:32:12;96723.06;;;2.63;100.00
3668;BME280;24099;47.102;15.440;2022-12-08T07:34:40;96722.69;;;2.58;100.00
3668;BME280;24099;47.102;15.440;2022-12-08T07:37:08;96718.44;;;2.57;100.00
3668;BME280;24099;47.102;15.440;2022-12-08T07:39:37;96706.44;;;2.46;100.00
3668;BME280;24099;47.102;15.440;2022-12-08T07:42:05;96710.00;;;2.45;100.00
3668;BME280;24099;47.102;15.440;2022-12-08T07:44:32;96711.38;;;2.49;100.00
3668;BME280;24099;47.102;15.440;2022-12-08T07:47:00;96714.34;;;2.54;100.00
3668;BME280;24099;47.102;15.440;2022-12-08T07:49:28;96710.78;;;2.55;100.00
3668;BME280;24099;47.102;15.440;2022-12-08T07:51:55;96703.69;;;2.57;100.00
3668;BME280;24099;47.102;15.440;2022-12-08T07:54:23;96702.13;;;2.64;100.00
3668;BME280;24099;47.102;15.440;2022-12-08T07:56:55;96715.13;;;2.64;100.00
3668;BME280;24099;47.102;15.440;2022-12-08T07:59:23;96712.44;;;2.56;100.00
3668;BME280;24099;47.102;15.440;2022-12-08T08:01:50;96710.59;;;2.66;100.00
3668;BME280;24099;47.102;15.440;2022-12-08T08:04:18;96713.72;;;2.70;100.00
3668;BME280;24099;47.102;15.440;2022-12-08T08:06:46;96715.66;;;2.68;100.00
3668;BME280;24099;47.102;15.440;2022-12-08T08:09:14;96714.06;;;2.57;100.00
3668;BME280;24099;47.102;15.440;2022-12-08T08:11:42;96707.31;;;2.64;100.00
3668;BME280;24099;47.102;15.440;2022-12-08T08:14:11;96709.50;;;2.69;100.00
3668;BME280;24099;47.102;15.440;2022-12-08T08:16:39;96703.91;;;2.64;100.00
3668;BME280;24099;47.102;15.440;2022-12-08T08:19:11;96701.91;;;2.58;100.00
3668;BME280;24099;47.102;15.440;2022-12-08T08:21:39;96701.16;;;2.65;100.00
3668;BME280;24099;47.102;15.440;2022-12-08T08:24:07;96695.53;;;2.70;100.00
3668;BME280;24099;47.102;15.440;2022-12-08T08:26:35;96696.22;;;2.72;100.00
3668;BME280;24099;47.102;15.440;2022-12-08T08:29:03;96701.13;;;2.75;100.00
3668;BME280;24099;47.102;15.440;2022-12-08T08:31:32;96690.94;;;2.82;100.00
3668;BME280;24099;47.102;15.440;2022-12-08T08:34:00;96693.47;;;2.73;100.00
3668;BME280;24099;47.102;15.440;2022-12-08T08:36:31;96681.59;;;2.71;100.00
3668;BME280;24099;47.102;15.440;2022-12-08T08:38:59;96686.72;;;2.81;100.00
3668;BME280;24099;47.102;15.440;2022-12-08T08:41:27;96689.03;;;2.84;100.00
3668;BME280;24099;47.102;15.440;2022-12-08T08:43:55;96692.03;;;2.89;100.00
3668;BME280;24099;47.102;15.440;2022-12-08T08:46:27;96693.13;;;2.86;100.00
3668;BME280;24099;47.102;15.440;2022-12-08T08:48:56;96692.91;;;2.80;100.00
3668;BME280;24099;47.102;15.440;2022-12-08T08:51:24;96696.97;;;2.82;100.00
3668;BME280;24099;47.102;15.440;2022-12-08T08:54:01;96700.03;;;2.78;100.00
3668;BME280;24099;47.102;15.440;2022-12-08T08:56:29;96690.94;;;2.82;100.00
3668;BME280;24099;47.102;15.440;2022-12-08T08:58:57;96693.47;;;2.73;100.00
3668;BME280;24099;47.102;15.440;2022-12-08T09:01:26;96693.97;;;2.59;100.00
3668;BME280;24099;47.102;15.440;2022-12-08T09:03:56;96689.03;;;2.84;100.00
3668;BME280;24099;47.102;15.440;2022-12-08T09:06:23;96681.06;;;2.67;100.00
3668;BME280;24099;47.102;15.440;2022-12-08T09:08:53;96676.94;;;2.74;100.00
3668;BME280;24099;47.102;15.440;2022-12-08T09:11:21;96674.72;;;2.80;100.00
3668;BME280;24099;47.102;15.440;2022-12-08T09:13:50;96679.56;;;2.92;100.00
3668;BME280;24099;47.102;15.440;2022-12-08T09:16:18;96675.56;;;2.98;100.00
3668;BME280;24099;47.102;15.440;2022-12-08T09:18:46;96670.72;;;3.03;100.00
3668;BME280;24099;47.102;15.440;2022-12-08T09:21:19;96668.06;;;3.13;100.00
3668;BME280;24099;47.102;15.440;2022-12-08T09:23:51;96659.50;;;3.02;100.00
3668;BME280;24099;47.102;15.440;2022-12-08T09:26:19;96654.44;;;2.83;100.00
3668;BME280;24099;47.102;15.440;2022-12-08T09:28:48;96653.41;;;2.94;100.00
3668;BME280;24099;47.102;15.440;2022-12-08T09:31:16;96656.03;;;2.94;100.00
3668;BME280;24099;47.102;15.440;2022-12-08T09:33:45;96650.38;;;2.98;100.00
3668;BME280;24099;47.102;15.440;2022-12-08T09:36:14;96651.19;;;2.99;100.00
3668;BME280;24099;47.102;15.440;2022-12-08T09:38:42;96656.31;;;3.08;100.00
3668;BME280;24099;47.102;15.440;2022-12-08T09:41:15;96653.13;;;2.97;100.00
3668;BME280;24099;47.102;15.440;2022-12-08T09:43:57;96654.38;;;2.93;100.00
3668;BME280;24099;47.102;15.440;2022-12-08T09:46:31;96649.63;;;2.88;100.00
3668;BME280;24099;47.102;15.440;2022-12-08T09:49:01;96646.00;;;2.99;100.00
3668;BME280;24099;47.102;15.440;2022-12-08T09:51:35;96652.22;;;3.06;100.00
3668;BME280;24099;47.102;15.440;2022-12-08T09:54:08;96648.28;;;3.02;100.00
3668;BME280;24099;47.102;15.440;2022-12-08T09:56:38;96648.97;;;3.04;100.00
3668;BME280;24099;47.102;15.440;2022-12-08T09:59:16;96645.25;;;3.06;100.00
3668;BME280;24099;47.102;15.440;2022-12-08T10:01:47;96638.34;;;3.15;100.00
3668;BME280;24099;47.102;15.440;2022-12-08T10:04:21;96644.22;;;3.17;100.00
3668;BME280;24099;47.102;15.440;2022-12-08T10:06:58;96642.72;;;3.15;100.00
3668;BME280;24099;47.102;15.440;2022-12-08T10:09:35;96636.03;;;3.12;100.00
3668;BME280;24099;47.102;15.440;2022-12-08T10:12:12;96634.50;;;3.19;100.00
3668;BME280;24099;47.102;15.440;2022-12-08T10:14:45;96634.47;;;3.37;100.00
3668;BME280;24099;47.102;15.440;2022-12-08T10:17:18;96625.56;;;3.22;100.00
3668;BME280;24099;47.102;15.440;2022-12-08T10:19:47;96627.94;;;3.15;100.00
3668;BME280;24099;47.102;15.440;2022-12-08T10:22:21;96620.69;;;3.19;100.00
3668;BME280;24099;47.102;15.440;2022-12-08T10:24:56;96611.59;;;3.23;100.00
3668;BME280;24099;47.102;15.440;2022-12-08T10:27:25;96601.03;;;3.24;100.00
3668;BME280;24099;47.102;15.440;2022-12-08T10:29:54;96600.03;;;3.17;100.00
3668;BME280;24099;47.102;15.440;2022-12-08T10:32:23;96592.53;;;3.14;100.00
3668;BME280;24099;47.102;15.440;2022-12-08T10:35:02;96585.84;;;2.94;100.00
3668;BME280;24099;47.102;15.440;2022-12-08T10:37:32;96582.34;;;3.03;100.00
3668;BME280;24099;47.102;15.440;2022-12-08T10:40:02;96585.38;;;3.16;100.00
3668;BME280;24099;47.102;15.440;2022-12-08T10:42:35;96581.28;;;3.31;100.00
3668;BME280;24099;47.102;15.440;2022-12-08T10:45:19;96567.69;;;3.37;100.00
3668;BME280;24099;47.102;15.440;2022-12-08T10:47:56;96568.69;;;3.19;100.00
3668;BME280;24099;47.102;15.440;2022-12-08T10:50:32;96563.44;;;3.36;100.00
3668;BME280;24099;47.102;15.440;2022-12-08T10:53:11;96553.13;;;3.53;100.00
3668;BME280;24099;47.102;15.440;2022-12-08T10:55:42;96543.63;;;3.43;100.00
3668;BME280;24099;47.102;15.440;2022-12-08T10:58:29;96537.75;;;3.41;100.00
3668;BME280;24099;47.102;15.440;2022-12-08T11:01:00;96528.91;;;3.52;100.00
3668;BME280;24099;47.102;15.440;2022-12-08T11:03:30;96515.84;;;3.44;100.00
3668;BME280;24099;47.102;15.440;2022-12-08T11:06:00;96511.59;;;3.43;100.00
3668;BME280;24099;47.102;15.440;2022-12-08T11:08:45;96514.34;;;3.41;100.00
3668;BME280;24099;47.102;15.440;2022-12-08T11:11:14;96502.59;;;3.55;100.00
3668;BME280;24099;47.102;15.440;2022-12-08T11:13:42;96499.41;;;3.69;100.00
3668;BME280;24099;47.102;15.440;2022-12-08T11:16:12;96499.50;;;3.60;100.00
3668;BME280;24099;47.102;15.440;2022-12-08T11:18:43;96496.94;;;3.68;100.00
3668;BME280;24099;47.102;15.440;2022-12-08T11:21:14;96498.34;;;3.54;100.00
3668;BME280;24099;47.102;15.440;2022-12-08T11:23:47;96496.22;;;3.50;100.00
3668;BME280;24099;47.102;15.440;2022-12-08T11:26:23;96499.78;;;3.49;100.00
3668;BME280;24099;47.102;15.440;2022-12-08T11:28:56;96505.50;;;3.52;100.00
3668;BME280;24099;47.102;15.440;2022-12-08T11:31:32;96506.00;;;3.56;100.00
3668;BME280;24099;47.102;15.440;2022-12-08T11:34:01;96504.53;;;3.53;100.00
3668;BME280;24099;47.102;15.440;2022-12-08T11:36:31;96497.59;;;3.36;100.00
3668;BME280;24099;47.102;15.440;2022-12-08T11:39:04;96505.66;;;3.51;100.00
3668;BME280;24099;47.102;15.440;2022-12-08T11:41:34;96499.16;;;3.55;100.00
3668;BME280;24099;47.102;15.440;2022-12-08T11:44:09;96504.38;;;3.55;100.00
3668;BME280;24099;47.102;15.440;2022-12-08T11:46:45;96500.44;;;3.51;100.00
3668;BME280;24099;47.102;15.440;2022-12-08T11:49:15;96494.78;;;3.55;100.00
3668;BME280;24099;47.102;15.440;2022-12-08T11:51:47;96504.22;;;3.56;100.00
3668;BME280;24099;47.102;15.440;2022-12-08T11:54:23;96494.63;;;3.57;100.00
3668;BME280;24099;47.102;15.440;2022-12-08T11:56:54;96491.22;;;3.56;100.00
3668;BME280;24099;47.102;15.440;2022-12-08T11:59:27;96486.16;;;3.55;100.00
3668;BME280;24099;47.102;15.440;2022-12-08T12:01:56;96490.69;;;3.53;100.00
3668;BME280;24099;47.102;15.440;2022-12-08T12:04:32;96488.41;;;3.50;100.00
3668;BME280;24099;47.102;15.440;2022-12-08T12:07:26;96478.50;;;3.53;100.00
3668;BME280;24099;47.102;15.440;2022-12-08T12:12:58;96485.00;;;3.49;100.00
3668;BME280;24099;47.102;15.440;2022-12-08T12:18:36;96481.09;;;3.53;100.00
3668;BME280;24099;47.102;15.440;2022-12-08T12:21:11;96473.47;;;3.52;100.00
3668;BME280;24099;47.102;15.440;2022-12-08T12:23:46;96466.78;;;3.49;100.00
3668;BME280;24099;47.102;15.440;2022-12-08T12:26:21;96466.50;;;3.60;100.00
3668;BME280;24099;47.102;15.440;2022-12-08T12:28:54;96464.22;;;3.57;100.00
3668;BME280;24099;47.102;15.440;2022-12-08T12:31:24;96460.66;;;3.58;100.00
3668;BME280;24099;47.102;15.440;2022-12-08T12:33:56;96459.34;;;3.54;100.00
3668;BME280;24099;47.102;15.440;2022-12-08T12:36:30;96454.94;;;3.55;100.00
3668;BME280;24099;47.102;15.440;2022-12-08T12:38:58;96455.75;;;3.55;100.00
3668;BME280;24099;47.102;15.440;2022-12-08T12:41:34;96446.56;;;3.43;100.00
3668;BME280;24099;47.102;15.440;2022-12-08T12:44:20;96447.66;;;3.58;100.00
3668;BME280;24099;47.102;15.440;2022-12-08T12:46:55;96436.72;;;3.55;100.00
3668;BME280;24099;47.102;15.440;2022-12-08T12:49:52;96444.53;;;3.55;100.00
3668;BME280;24099;47.102;15.440;2022-12-08T12:52:41;96448.72;;;3.47;100.00
3668;BME280;24099;47.102;15.440;2022-12-08T12:58:38;96451.16;;;3.49;100.00
3668;BME280;24099;47.102;15.440;2022-12-08T13:01:47;96443.72;;;3.54;100.00
3668;BME280;24099;47.102;15.440;2022-12-08T13:04:16;96445.69;;;3.60;100.00
3668;BME280;24099;47.102;15.440;2022-12-08T13:06:47;96435.78;;;3.64;100.00
3668;BME280;24099;47.102;15.440;2022-12-08T13:09:21;96430.25;;;3.59;100.00
3668;BME280;24099;47.102;15.440;2022-12-08T13:11:54;96427.22;;;3.37;100.00
3668;BME280;24099;47.102;15.440;2022-12-08T13:14:37;96430.50;;;3.47;100.00
3668;BME280;24099;47.102;15.440;2022-12-08T13:17:12;96429.75;;;3.55;100.00
3668;BME280;24099;47.102;15.440;2022-12-08T13:19:43;96429.75;;;3.55;100.00
3668;BME280;24099;47.102;15.440;2022-12-08T13:28:24;96421.44;;;3.52;100.00
3668;BME280;24099;47.102;15.440;2022-12-08T13:30:55;96422.25;;;3.52;100.00
3668;BME280;24099;47.102;15.440;2022-12-08T13:33:26;96417.56;;;3.56;100.00
3668;BME280;24099;47.102;15.440;2022-12-08T13:36:17;96417.72;;;3.54;100.00
3668;BME280;24099;47.102;15.440;2022-12-08T13:38:51;96417.56;;;3.56;100.00